createdAt,value
2018-11-22T00:00:04.413Z,44.35
2018-11-22T00:01:04.206Z,44.32
2018-11-22T00:02:04.240Z,44.33
2018-11-22T00:03:04.458Z,44.32
2018-11-22T00:04:04.330Z,44.34
2018-11-22T00:05:04.332Z,44.34
2018-11-22T00:06:04.319Z,44.36
2018-11-22T00:07:04.696Z,44.33
2018-11-22T00:08:04.274Z,44.45
2018-11-22T00:09:04.322Z,44.46
2018-11-22T00:10:04.684Z,44.44
2018-11-22T00:11:04.325Z,44.5
2018-11-22T00:12:04.566Z,44.47
2018-11-22T00:13:04.283Z,44.48
2018-11-22T00:14:04.619Z,44.43
2018-11-22T00:15:04.257Z,44.45
2018-11-22T00:16:04.650Z,44.44
2018-11-22T00:17:04.277Z,44.44
2018-11-22T00:18:04.415Z,44.4
2018-11-22T00:19:04.319Z,44.44
2018-11-22T00:20:04.660Z,44.41
2018-11-22T00:21:04.236Z,44.43
2018-11-22T00:22:04.417Z,44.44
2018-11-22T00:23:04.477Z,44.45
2018-11-22T00:24:04.269Z,44.46
2018-11-22T00:25:04.510Z,44.45
2018-11-22T00:26:04.483Z,44.45
2018-11-22T00:27:04.438Z,44.43
2018-11-22T00:28:04.240Z,44.43
2018-11-22T00:29:04.381Z,44.5
2018-11-22T00:30:04.262Z,44.46
2018-11-22T00:31:04.447Z,44.47
2018-11-22T00:32:04.255Z,44.44
2018-11-22T00:33:04.613Z,44.48
2018-11-22T00:34:04.383Z,44.47
2018-11-22T00:35:04.401Z,44.42
2018-11-22T00:36:04.603Z,44.52
2018-11-22T00:37:04.333Z,44.46
2018-11-22T00:38:04.616Z,44.47
2018-11-22T00:39:04.351Z,44.56
2018-11-22T00:40:04.328Z,44.5
2018-11-22T00:41:04.709Z,44.52
2018-11-22T00:42:04.258Z,44.49
2018-11-22T00:43:04.929Z,44.49
2018-11-22T00:44:04.312Z,44.51
2018-11-22T00:45:04.418Z,44.55
2018-11-22T00:46:04.466Z,44.54
2018-11-22T00:47:04.790Z,44.5
2018-11-22T00:48:04.883Z,44.58
2018-11-22T00:49:04.341Z,44.55
2018-11-22T00:50:04.255Z,44.52
2018-11-22T00:51:04.437Z,44.5
2018-11-22T00:52:04.471Z,44.54
2018-11-22T00:53:04.372Z,44.56
2018-11-22T00:54:04.377Z,44.5
2018-11-22T00:55:04.425Z,44.5
2018-11-22T00:56:04.334Z,44.49
2018-11-22T00:57:04.200Z,44.55
2018-11-22T00:58:04.439Z,44.53
2018-11-22T00:59:04.440Z,44.49
2018-11-22T01:00:04.977Z,44.49
2018-11-22T01:01:04.788Z,44.57
2018-11-22T01:02:04.511Z,44.5
2018-11-22T01:03:04.672Z,44.48
2018-11-22T01:04:04.172Z,44.55
2018-11-22T01:05:04.698Z,44.54
2018-11-22T01:06:04.311Z,44.53
2018-11-22T01:07:04.347Z,44.48
2018-11-22T01:08:04.156Z,44.54
2018-11-22T01:09:04.534Z,44.55
2018-11-22T01:10:04.727Z,44.51
2018-11-22T01:11:04.265Z,44.46
2018-11-22T01:12:04.848Z,44.5
2018-11-22T01:13:04.391Z,44.56
2018-11-22T01:14:04.399Z,44.54
2018-11-22T01:15:04.215Z,44.51
2018-11-22T01:16:04.408Z,44.54
2018-11-22T01:17:04.709Z,44.46
2018-11-22T01:18:04.429Z,44.61
2018-11-22T01:19:04.460Z,44.52
2018-11-22T01:20:04.662Z,44.58
2018-11-22T01:21:04.370Z,44.48
2018-11-22T01:22:04.523Z,44.53
2018-11-22T01:23:04.751Z,44.46
2018-11-22T01:24:04.419Z,44.51
2018-11-22T01:25:04.450Z,44.48
2018-11-22T01:26:04.273Z,44.55
2018-11-22T01:27:04.662Z,44.51
2018-11-22T01:28:04.400Z,44.57
2018-11-22T01:29:04.460Z,44.54
2018-11-22T01:30:04.402Z,44.43
2018-11-22T01:31:04.339Z,44.51
2018-11-22T01:32:05.294Z,44.48
2018-11-22T01:33:04.697Z,44.57
2018-11-22T01:34:04.829Z,44.44
2018-11-22T01:35:04.598Z,44.57
2018-11-22T01:36:04.439Z,44.61
2018-11-22T01:37:04.234Z,44.52
2018-11-22T01:38:04.515Z,44.55
2018-11-22T01:39:04.169Z,44.56
2018-11-22T01:40:04.354Z,44.52
2018-11-22T01:41:04.434Z,44.57
2018-11-22T01:42:04.356Z,44.55
2018-11-22T01:43:04.373Z,44.51
2018-11-22T01:44:04.223Z,44.45
2018-11-22T01:45:04.385Z,44.53
2018-11-22T01:46:04.242Z,44.48
2018-11-22T01:47:04.315Z,44.48
2018-11-22T01:48:04.306Z,44.56
2018-11-22T01:49:04.409Z,44.5
2018-11-22T01:50:04.375Z,44.55
2018-11-22T01:51:04.318Z,44.5
2018-11-22T01:52:04.428Z,44.55
2018-11-22T01:53:04.278Z,44.54
2018-11-22T01:54:04.626Z,44.54
2018-11-22T01:55:04.181Z,44.52
2018-11-22T01:56:04.377Z,44.54
2018-11-22T01:57:04.276Z,44.57
2018-11-22T01:58:04.455Z,44.53
2018-11-22T01:59:04.151Z,44.57
2018-11-22T02:00:04.392Z,44.5
2018-11-22T02:01:04.175Z,44.57
2018-11-22T02:02:04.918Z,44.5
2018-11-22T02:03:04.417Z,44.56
2018-11-22T02:04:04.740Z,44.62
2018-11-22T02:05:04.457Z,44.57
2018-11-22T02:06:04.524Z,44.47
2018-11-22T02:07:04.412Z,44.51
2018-11-22T02:08:04.532Z,44.56
2018-11-22T02:09:04.615Z,44.5
2018-11-22T02:10:04.536Z,44.54
2018-11-22T02:11:04.794Z,44.61
2018-11-22T02:12:04.206Z,44.54
2018-11-22T02:13:04.293Z,44.53
2018-11-22T02:14:04.668Z,44.65
2018-11-22T02:15:04.463Z,44.62
2018-11-22T02:16:04.448Z,44.56
2018-11-22T02:17:04.212Z,44.55
2018-11-22T02:18:04.685Z,44.56
2018-11-22T02:19:04.414Z,44.57
2018-11-22T02:20:04.641Z,44.58
2018-11-22T02:21:04.273Z,44.54
2018-11-22T02:22:04.950Z,44.54
2018-11-22T02:23:04.172Z,44.6
2018-11-22T02:24:04.359Z,44.63
2018-11-22T02:25:05.336Z,44.55
2018-11-22T02:26:04.254Z,44.59
2018-11-22T02:27:04.504Z,44.54
2018-11-22T02:28:04.513Z,44.55
2018-11-22T02:29:04.368Z,44.53
2018-11-22T02:30:04.692Z,44.47
2018-11-22T02:31:05.212Z,44.5
2018-11-22T02:32:04.214Z,44.46
2018-11-22T02:33:04.728Z,44.47
2018-11-22T02:34:04.497Z,44.51
2018-11-22T02:35:04.411Z,44.55
2018-11-22T02:36:04.719Z,44.49
2018-11-22T02:37:04.460Z,44.44
2018-11-22T02:38:04.313Z,44.51
2018-11-22T02:39:04.360Z,44.54
2018-11-22T02:40:04.364Z,44.59
2018-11-22T02:41:04.221Z,44.51
2018-11-22T02:42:04.869Z,44.55
2018-11-22T02:43:04.119Z,44.54
2018-11-22T02:44:04.375Z,44.49
2018-11-22T02:45:04.353Z,44.54
2018-11-22T02:46:04.169Z,44.55
2018-11-22T02:47:04.236Z,44.6
2018-11-22T02:48:04.338Z,44.55
2018-11-22T02:49:04.321Z,44.59
2018-11-22T02:50:04.286Z,44.57
2018-11-22T02:51:04.501Z,44.61
2018-11-22T02:52:04.571Z,44.53
2018-11-22T02:53:04.652Z,44.56
2018-11-22T02:54:04.452Z,44.54
2018-11-22T02:55:04.761Z,44.58
2018-11-22T02:56:04.279Z,44.6
2018-11-22T02:57:04.234Z,44.57
2018-11-22T02:58:04.394Z,44.64
2018-11-22T02:59:04.245Z,44.62
2018-11-22T03:00:04.320Z,44.56
2018-11-22T03:01:04.521Z,44.51
2018-11-22T03:02:04.410Z,44.56
2018-11-22T03:03:04.451Z,44.51
2018-11-22T03:04:04.285Z,44.56
2018-11-22T03:05:04.526Z,44.5
2018-11-22T03:06:04.538Z,44.55
2018-11-22T03:07:04.157Z,44.56
2018-11-22T03:08:04.723Z,44.58
2018-11-22T03:09:04.661Z,44.6
2018-11-22T03:10:04.281Z,44.61
2018-11-22T03:11:04.409Z,44.59
2018-11-22T03:12:04.193Z,44.57
2018-11-22T03:13:04.395Z,44.6
2018-11-22T03:14:04.199Z,44.59
2018-11-22T03:15:04.251Z,44.61
2018-11-22T03:16:04.139Z,44.62
2018-11-22T03:17:04.307Z,44.63
2018-11-22T03:18:04.365Z,44.64
2018-11-22T03:19:04.286Z,44.62
2018-11-22T03:20:04.422Z,44.61
2018-11-22T03:21:04.238Z,44.62
2018-11-22T03:22:04.458Z,44.69
2018-11-22T03:23:04.339Z,44.6
2018-11-22T03:24:04.206Z,44.6
2018-11-22T03:25:04.583Z,44.63
2018-11-22T03:26:04.283Z,44.62
2018-11-22T03:27:04.148Z,44.64
2018-11-22T03:28:04.284Z,44.64
2018-11-22T03:29:04.667Z,44.62
2018-11-22T03:30:04.233Z,44.61
2018-11-22T03:31:04.627Z,44.6
2018-11-22T03:32:04.288Z,44.6
2018-11-22T03:33:04.287Z,44.61
2018-11-22T03:34:04.630Z,44.63
2018-11-22T03:35:04.402Z,44.53
2018-11-22T03:36:04.253Z,44.6
2018-11-22T03:37:04.355Z,44.6
2018-11-22T03:38:04.568Z,44.56
2018-11-22T03:39:04.203Z,44.64
2018-11-22T03:40:04.420Z,44.63
2018-11-22T03:41:04.309Z,44.61
2018-11-22T03:42:04.518Z,44.63
2018-11-22T03:43:04.393Z,44.61
2018-11-22T03:44:04.233Z,44.51
2018-11-22T03:45:04.102Z,44.52
2018-11-22T03:46:04.737Z,44.61
2018-11-22T03:47:04.637Z,44.67
2018-11-22T03:48:04.539Z,44.6
2018-11-22T03:49:04.665Z,44.59
2018-11-22T03:50:04.641Z,44.61
2018-11-22T03:51:04.271Z,44.63
2018-11-22T03:52:04.529Z,44.55
2018-11-22T03:53:04.673Z,44.63
2018-11-22T03:54:04.365Z,44.58
2018-11-22T03:55:04.325Z,44.6
2018-11-22T03:56:04.264Z,44.6
2018-11-22T03:57:05.154Z,44.61
2018-11-22T03:58:04.607Z,44.66
2018-11-22T03:59:04.394Z,44.63
2018-11-22T04:00:05.117Z,44.64
2018-11-22T04:01:04.216Z,44.58
2018-11-22T04:02:04.304Z,44.67
2018-11-22T04:03:04.124Z,44.6
2018-11-22T04:04:04.951Z,44.61
2018-11-22T04:05:04.227Z,44.57
2018-11-22T04:06:04.193Z,44.69
2018-11-22T04:07:04.205Z,44.63
2018-11-22T04:08:04.268Z,44.65
2018-11-22T04:09:04.392Z,44.65
2018-11-22T04:10:04.317Z,44.65
2018-11-22T04:11:04.593Z,44.59
2018-11-22T04:12:04.234Z,44.64
2018-11-22T04:13:04.331Z,44.56
2018-11-22T04:14:04.302Z,44.62
2018-11-22T04:15:04.320Z,44.69
2018-11-22T04:16:04.382Z,44.63
2018-11-22T04:17:04.501Z,44.67
2018-11-22T04:18:04.724Z,44.56
2018-11-22T04:19:04.357Z,44.6
2018-11-22T04:20:04.416Z,44.64
2018-11-22T04:21:04.581Z,44.62
2018-11-22T04:22:04.574Z,44.62
2018-11-22T04:23:04.149Z,44.63
2018-11-22T04:24:04.403Z,44.64
2018-11-22T04:25:04.733Z,44.6
2018-11-22T04:26:04.681Z,44.6
2018-11-22T04:27:04.140Z,44.55
2018-11-22T04:28:04.220Z,44.64
2018-11-22T04:29:04.301Z,44.59
2018-11-22T04:30:04.427Z,44.64
2018-11-22T04:31:04.771Z,44.63
2018-11-22T04:32:04.643Z,44.67
2018-11-22T04:33:04.388Z,44.66
2018-11-22T04:34:04.544Z,44.57
2018-11-22T04:35:04.318Z,44.54
2018-11-22T04:36:04.243Z,44.5
2018-11-22T04:37:04.203Z,44.5
2018-11-22T04:38:04.406Z,44.39
2018-11-22T04:39:04.095Z,44.39
2018-11-22T04:40:04.716Z,44.41
2018-11-22T04:41:04.398Z,44.43
2018-11-22T04:42:04.294Z,44.46
2018-11-22T04:43:04.114Z,44.51
2018-11-22T04:44:04.521Z,44.48
2018-11-22T04:45:04.192Z,44.55
2018-11-22T04:46:04.262Z,44.58
2018-11-22T04:47:04.086Z,44.64
2018-11-22T04:48:04.160Z,44.6
2018-11-22T04:49:04.161Z,44.62
2018-11-22T04:50:04.374Z,44.58
2018-11-22T04:51:04.662Z,44.65
2018-11-22T04:52:04.291Z,44.69
2018-11-22T04:53:04.290Z,44.67
2018-11-22T04:54:04.181Z,44.69
2018-11-22T04:55:04.384Z,44.75
2018-11-22T04:56:04.339Z,44.77
2018-11-22T04:57:04.332Z,44.83
2018-11-22T04:58:04.150Z,44.76
2018-11-22T04:59:04.076Z,44.71
2018-11-22T05:00:04.233Z,44.75
2018-11-22T05:01:04.369Z,44.82
2018-11-22T05:02:04.032Z,44.86
2018-11-22T05:03:04.218Z,44.87
2018-11-22T05:04:04.662Z,44.85
2018-11-22T05:05:04.176Z,44.95
2018-11-22T05:06:04.458Z,44.88
2018-11-22T05:07:04.159Z,44.82
2018-11-22T05:08:04.250Z,44.9
2018-11-22T05:09:04.122Z,44.89
2018-11-22T05:10:04.462Z,44.87
2018-11-22T05:11:04.510Z,44.87
2018-11-22T05:12:04.212Z,44.88
2018-11-22T05:13:04.064Z,44.87
2018-11-22T05:14:04.238Z,44.88
2018-11-22T05:15:04.195Z,44.83
2018-11-22T05:16:04.478Z,44.86
2018-11-22T05:17:03.978Z,44.83
2018-11-22T05:18:04.369Z,44.82
2018-11-22T05:19:04.250Z,44.8
2018-11-22T05:20:04.178Z,44.82
2018-11-22T05:21:04.300Z,44.79
2018-11-22T05:22:04.193Z,44.78
2018-11-22T05:23:04.209Z,44.78
2018-11-22T05:24:04.380Z,44.76
2018-11-22T05:25:04.573Z,44.8
2018-11-22T05:26:04.212Z,44.77
2018-11-22T05:27:04.288Z,44.79
2018-11-22T05:28:04.553Z,44.78
2018-11-22T05:29:04.240Z,44.75
2018-11-22T05:30:04.315Z,44.77
2018-11-22T05:31:04.512Z,44.77
2018-11-22T05:32:04.453Z,44.78
2018-11-22T05:33:04.070Z,44.73
2018-11-22T05:34:04.335Z,44.79
2018-11-22T05:35:04.062Z,44.78
2018-11-22T05:36:04.198Z,44.74
2018-11-22T05:37:04.280Z,44.79
2018-11-22T05:38:04.242Z,44.78
2018-11-22T05:39:04.728Z,44.79
2018-11-22T05:40:04.323Z,44.75
2018-11-22T05:41:04.574Z,44.73
2018-11-22T05:42:04.080Z,44.77
2018-11-22T05:43:04.484Z,44.79
2018-11-22T05:44:04.222Z,44.74
2018-11-22T05:45:04.468Z,44.79
2018-11-22T05:46:04.583Z,44.71
2018-11-22T05:47:04.262Z,44.76
2018-11-22T05:48:04.236Z,44.73
2018-11-22T05:49:04.152Z,44.76
2018-11-22T05:50:04.247Z,44.72
2018-11-22T05:51:04.154Z,44.76
2018-11-22T05:52:04.286Z,44.76
2018-11-22T05:53:04.194Z,44.73
2018-11-22T05:54:04.397Z,44.76
2018-11-22T05:55:04.215Z,44.75
2018-11-22T05:56:04.233Z,44.73
2018-11-22T05:57:04.360Z,44.76
2018-11-22T05:58:04.689Z,44.73
2018-11-22T05:59:04.314Z,44.69
2018-11-22T06:00:04.447Z,44.77
2018-11-22T06:01:04.678Z,44.76
2018-11-22T06:02:04.371Z,44.74
2018-11-22T06:03:04.164Z,44.76
2018-11-22T06:04:04.593Z,44.74
2018-11-22T06:05:04.213Z,44.75
2018-11-22T06:06:04.357Z,44.76
2018-11-22T06:07:04.111Z,44.72
2018-11-22T06:08:04.388Z,44.76
2018-11-22T06:09:04.129Z,44.75
2018-11-22T06:10:04.310Z,44.71
2018-11-22T06:11:04.063Z,44.75
2018-11-22T06:12:04.406Z,44.78
2018-11-22T06:13:04.411Z,44.75
2018-11-22T06:14:04.153Z,44.7
2018-11-22T06:15:04.230Z,44.72
2018-11-22T06:16:04.330Z,44.73
2018-11-22T06:17:04.035Z,44.75
2018-11-22T06:18:04.053Z,44.77
2018-11-22T06:19:04.274Z,44.74
2018-11-22T06:20:04.135Z,44.77
2018-11-22T06:21:04.175Z,44.75
2018-11-22T06:22:04.262Z,44.76
2018-11-22T06:23:04.657Z,44.74
2018-11-22T06:24:04.162Z,44.74
2018-11-22T06:25:04.127Z,44.76
2018-11-22T06:26:04.000Z,44.75
2018-11-22T06:27:04.114Z,44.76
2018-11-22T06:28:04.207Z,44.77
2018-11-22T06:29:04.010Z,44.63
2018-11-22T06:30:04.176Z,44.76
2018-11-22T06:31:06.585Z,44.7
2018-11-22T06:32:04.948Z,44.73
2018-11-22T06:33:04.700Z,44.75
2018-11-22T06:34:04.121Z,44.76
2018-11-22T06:35:04.192Z,44.76
2018-11-22T06:36:04.208Z,44.77
2018-11-22T06:37:04.024Z,44.69
2018-11-22T06:38:04.555Z,44.78
2018-11-22T06:39:04.515Z,44.76
2018-11-22T06:40:04.295Z,44.73
2018-11-22T06:41:04.233Z,44.79
2018-11-22T06:42:04.249Z,44.76
2018-11-22T06:43:04.101Z,44.74
2018-11-22T06:44:04.885Z,44.75
2018-11-22T06:45:04.471Z,44.71
2018-11-22T06:46:04.203Z,44.74
2018-11-22T06:47:03.997Z,44.75
2018-11-22T06:48:04.117Z,44.73
2018-11-22T06:49:04.104Z,44.74
2018-11-22T06:50:04.263Z,44.75
2018-11-22T06:51:04.719Z,44.73
2018-11-22T06:52:04.295Z,44.7
2018-11-22T06:53:04.699Z,44.71
2018-11-22T06:54:04.189Z,44.73
2018-11-22T06:55:04.554Z,44.75
2018-11-22T06:56:04.168Z,44.73
2018-11-22T06:57:04.002Z,44.68
2018-11-22T06:58:04.453Z,44.73
2018-11-22T06:59:04.971Z,44.73
2018-11-22T07:00:04.077Z,44.73
2018-11-22T07:01:04.374Z,44.68
2018-11-22T07:02:04.353Z,44.73
2018-11-22T07:03:04.442Z,44.54
2018-11-22T07:04:04.658Z,44.73
2018-11-22T07:05:04.263Z,44.69
2018-11-22T07:06:04.248Z,44.71
2018-11-22T07:07:04.187Z,44.73
2018-11-22T07:08:04.355Z,44.68
2018-11-22T07:09:04.350Z,44.74
2018-11-22T07:10:04.274Z,44.72
2018-11-22T07:11:04.272Z,44.68
2018-11-22T07:12:04.388Z,44.7
2018-11-22T07:13:04.377Z,44.67
2018-11-22T07:14:04.154Z,44.65
2018-11-22T07:15:04.197Z,44.66
2018-11-22T07:16:04.458Z,44.72
2018-11-22T07:17:04.396Z,44.67
2018-11-22T07:18:04.146Z,44.68
2018-11-22T07:19:04.375Z,44.7
2018-11-22T07:20:04.068Z,44.67
2018-11-22T07:21:04.165Z,44.68
2018-11-22T07:22:04.337Z,44.66
2018-11-22T07:23:04.443Z,44.66
2018-11-22T07:24:03.961Z,44.65
2018-11-22T07:25:04.243Z,44.65
2018-11-22T07:26:04.341Z,44.69
2018-11-22T07:27:04.434Z,44.62
2018-11-22T07:28:04.489Z,44.65
2018-11-22T07:29:04.299Z,44.65
2018-11-22T07:30:04.460Z,44.6
2018-11-22T07:31:04.290Z,44.63
2018-11-22T07:32:04.294Z,44.62
2018-11-22T07:33:04.605Z,44.6
2018-11-22T07:34:04.535Z,44.65
2018-11-22T07:35:04.189Z,44.6
2018-11-22T07:36:04.498Z,44.65
2018-11-22T07:37:04.220Z,44.58
2018-11-22T07:38:04.243Z,44.58
2018-11-22T07:39:04.342Z,44.56
2018-11-22T07:40:04.155Z,44.61
2018-11-22T07:41:05.113Z,44.57
2018-11-22T07:42:04.033Z,44.59
2018-11-22T07:43:04.311Z,44.58
2018-11-22T07:44:04.111Z,44.62
2018-11-22T07:45:04.097Z,44.65
2018-11-22T07:46:04.354Z,44.6
2018-11-22T07:47:04.127Z,44.65
2018-11-22T07:48:04.023Z,44.61
2018-11-22T07:49:04.073Z,44.5
2018-11-22T07:50:04.534Z,44.65
2018-11-22T07:51:04.454Z,44.6
2018-11-22T07:52:04.173Z,44.58
2018-11-22T07:53:04.041Z,44.63
2018-11-22T07:54:04.562Z,44.61
2018-11-22T07:55:04.069Z,44.61
2018-11-22T07:56:04.237Z,44.6
2018-11-22T07:57:03.858Z,44.57
2018-11-22T07:58:04.087Z,44.53
2018-11-22T07:59:04.123Z,44.57
2018-11-22T08:00:04.022Z,44.6
2018-11-22T08:01:04.218Z,44.58
2018-11-22T08:02:04.076Z,44.53
2018-11-22T08:03:04.151Z,44.58
2018-11-22T08:04:04.081Z,44.59
2018-11-22T08:05:04.131Z,44.55
2018-11-22T08:06:04.455Z,44.6
2018-11-22T08:07:04.852Z,44.55
2018-11-22T08:08:04.259Z,44.53
2018-11-22T08:09:04.199Z,44.59
2018-11-22T08:10:04.323Z,44.59
2018-11-22T08:11:04.090Z,44.53
2018-11-22T08:12:04.228Z,44.58
2018-11-22T08:13:04.035Z,44.59
2018-11-22T08:14:04.403Z,44.58
2018-11-22T08:15:04.295Z,44.58
2018-11-22T08:16:04.116Z,44.59
2018-11-22T08:17:04.047Z,44.6
2018-11-22T08:18:04.417Z,44.59
2018-11-22T08:19:04.682Z,44.49
2018-11-22T08:20:04.737Z,44.58
2018-11-22T08:21:05.125Z,44.57
2018-11-22T08:22:04.006Z,44.53
2018-11-22T08:23:04.651Z,44.59
2018-11-22T08:24:04.566Z,44.53
2018-11-22T08:25:04.702Z,44.59
2018-11-22T08:26:04.544Z,44.55
2018-11-22T08:27:04.283Z,44.56
2018-11-22T08:28:04.659Z,44.53
2018-11-22T08:29:04.179Z,44.52
2018-11-22T08:30:04.342Z,44.56
2018-11-22T08:31:04.121Z,44.53
2018-11-22T08:32:04.838Z,44.58
2018-11-22T08:33:04.252Z,44.57
2018-11-22T08:34:04.203Z,44.53
2018-11-22T08:35:04.068Z,44.55
2018-11-22T08:36:04.197Z,44.6
2018-11-22T08:37:04.181Z,44.52
2018-11-22T08:38:04.019Z,44.54
2018-11-22T08:39:04.127Z,44.49
2018-11-22T08:40:04.006Z,44.41
2018-11-22T08:41:04.569Z,44.56
2018-11-22T08:42:04.075Z,44.52
2018-11-22T08:43:04.101Z,44.52
2018-11-22T08:44:04.412Z,44.52
2018-11-22T08:45:04.369Z,44.54
2018-11-22T08:46:04.193Z,44.54
2018-11-22T08:47:04.323Z,44.47
2018-11-22T08:48:04.346Z,44.46
2018-11-22T08:49:04.042Z,44.53
2018-11-22T08:50:04.127Z,44.53
2018-11-22T08:51:04.165Z,44.47
2018-11-22T08:52:04.149Z,44.5
2018-11-22T08:53:04.485Z,44.52
2018-11-22T08:54:04.220Z,44.54
2018-11-22T08:55:04.422Z,44.46
2018-11-22T08:56:04.162Z,44.52
2018-11-22T08:57:04.582Z,44.5
2018-11-22T08:58:04.227Z,44.46
2018-11-22T08:59:04.412Z,44.52
2018-11-22T09:00:04.362Z,44.49
2018-11-22T09:01:04.326Z,44.37
2018-11-22T09:02:03.941Z,44.5
2018-11-22T09:03:04.630Z,44.49
2018-11-22T09:04:04.661Z,44.48
2018-11-22T09:05:04.424Z,44.43
2018-11-22T09:06:04.152Z,44.5
2018-11-22T09:07:04.096Z,44.41
2018-11-22T09:08:04.384Z,44.45
2018-11-22T09:09:04.685Z,44.43
2018-11-22T09:10:04.292Z,44.36
2018-11-22T09:11:03.971Z,44.46
2018-11-22T09:12:04.312Z,44.47
2018-11-22T09:13:05.136Z,44.44
2018-11-22T09:14:04.206Z,44.4
2018-11-22T09:15:04.240Z,44.47
2018-11-22T09:16:04.032Z,44.43
2018-11-22T09:17:04.439Z,44.43
2018-11-22T09:18:04.123Z,44.42
2018-11-22T09:19:04.056Z,44.38
2018-11-22T09:20:03.992Z,44.41
2018-11-22T09:21:04.042Z,44.39
2018-11-22T09:22:04.117Z,44.39
2018-11-22T09:23:04.103Z,44.4
2018-11-22T09:24:04.261Z,44.41
2018-11-22T09:25:04.084Z,44.4
2018-11-22T09:26:04.075Z,44.38
2018-11-22T09:27:04.213Z,44.3
2018-11-22T09:28:04.098Z,44.26
2018-11-22T09:29:04.006Z,44.37
2018-11-22T09:30:04.404Z,44.34
2018-11-22T09:31:04.485Z,44.27
2018-11-22T09:32:03.925Z,44.32
2018-11-22T09:33:03.985Z,44.33
2018-11-22T09:34:04.114Z,44.29
2018-11-22T09:35:04.111Z,44.39
2018-11-22T09:36:04.179Z,44.33
2018-11-22T09:37:04.476Z,44.35
2018-11-22T09:38:04.197Z,44.36
2018-11-22T09:39:04.196Z,44.38
2018-11-22T09:40:04.005Z,44.37
2018-11-22T09:41:04.180Z,44.39
2018-11-22T09:42:04.244Z,44.37
2018-11-22T09:43:04.754Z,44.4
2018-11-22T09:44:03.980Z,44.39
2018-11-22T09:45:04.172Z,44.38
2018-11-22T09:46:04.225Z,44.36
2018-11-22T09:47:04.131Z,44.27
2018-11-22T09:48:04.161Z,44.4
2018-11-22T09:49:03.996Z,44.39
2018-11-22T09:50:04.228Z,44.37
2018-11-22T09:51:04.452Z,44.42
2018-11-22T09:52:04.068Z,44.38
2018-11-22T09:53:03.952Z,44.4
2018-11-22T09:54:04.138Z,44.39
2018-11-22T09:55:04.474Z,44.42
2018-11-22T09:56:04.125Z,44.36
2018-11-22T09:57:04.410Z,44.36
2018-11-22T09:58:04.338Z,44.36
2018-11-22T09:59:04.181Z,44.37
2018-11-22T10:00:04.137Z,44.37
2018-11-22T10:01:05.135Z,44.39
2018-11-22T10:02:03.938Z,44.36
2018-11-22T10:03:04.832Z,44.36
2018-11-22T10:04:04.171Z,44.43
2018-11-22T10:05:04.915Z,44.4
2018-11-22T10:06:04.159Z,44.4
2018-11-22T10:07:04.001Z,44.4
2018-11-22T10:08:04.256Z,44.4
2018-11-22T10:09:04.375Z,44.36
2018-11-22T10:10:04.105Z,44.39
2018-11-22T10:11:04.217Z,44.37
2018-11-22T10:12:04.027Z,44.37
2018-11-22T10:13:04.341Z,44.4
2018-11-22T10:14:03.970Z,44.39
2018-11-22T10:15:04.152Z,44.37
2018-11-22T10:16:04.364Z,44.37
2018-11-22T10:17:04.365Z,44.4
2018-11-22T10:18:04.454Z,44.41
2018-11-22T10:19:04.333Z,44.37
2018-11-22T10:20:05.357Z,44.37
2018-11-22T10:21:03.946Z,44.35
2018-11-22T10:22:04.095Z,44.38
2018-11-22T10:23:04.168Z,44.36
2018-11-22T10:24:04.276Z,44.35
2018-11-22T10:25:04.712Z,44.36
2018-11-22T10:26:04.041Z,44.36
2018-11-22T10:27:04.495Z,44.37
2018-11-22T10:28:04.029Z,44.31
2018-11-22T10:29:04.150Z,44.37
2018-11-22T10:30:04.059Z,44.34
2018-11-22T10:31:04.362Z,44.35
2018-11-22T10:32:04.426Z,44.32
2018-11-22T10:33:04.302Z,44.36
2018-11-22T10:34:04.135Z,44.35
2018-11-22T10:35:04.311Z,44.33
2018-11-22T10:36:04.355Z,44.37
2018-11-22T10:37:03.973Z,44.37
2018-11-22T10:38:04.806Z,44.37
2018-11-22T10:39:04.454Z,44.33
2018-11-22T10:40:04.015Z,44.34
2018-11-22T10:41:03.904Z,44.37
2018-11-22T10:42:04.096Z,44.36
2018-11-22T10:44:04.022Z,44.36
2018-11-22T10:45:04.475Z,44.36
2018-11-22T10:46:04.185Z,44.38
2018-11-22T10:47:04.248Z,44.35
2018-11-22T10:48:03.992Z,44.34
2018-11-22T10:49:04.013Z,44.35
2018-11-22T10:50:04.150Z,44.34
2018-11-22T10:51:04.303Z,44.3
2018-11-22T10:52:03.863Z,44.34
2018-11-22T10:53:03.951Z,44.35
2018-11-22T10:54:04.072Z,44.32
2018-11-22T10:55:03.953Z,44.28
2018-11-22T10:56:03.972Z,44.36
2018-11-22T10:57:04.189Z,44.36
2018-11-22T10:58:04.036Z,44.37
2018-11-22T10:59:04.123Z,44.42
2018-11-22T11:00:04.021Z,44.35
2018-11-22T11:01:04.336Z,44.36
2018-11-22T11:02:03.881Z,44.37
2018-11-22T11:03:03.932Z,44.37
2018-11-22T11:04:04.181Z,44.4
2018-11-22T11:05:04.023Z,44.39
2018-11-22T11:06:04.034Z,44.41
2018-11-22T11:07:03.953Z,44.4
2018-11-22T11:08:04.499Z,44.37
2018-11-22T11:09:03.934Z,44.4
2018-11-22T11:10:04.296Z,44.38
2018-11-22T11:11:03.996Z,44.36
2018-11-22T11:12:04.038Z,44.39
2018-11-22T11:13:04.097Z,44.39
2018-11-22T11:14:04.119Z,44.4
2018-11-22T11:15:04.121Z,44.4
2018-11-22T11:16:04.154Z,44.39
2018-11-22T11:17:04.333Z,44.41
2018-11-22T11:18:04.232Z,44.39
2018-11-22T11:19:04.387Z,44.39
2018-11-22T11:20:04.016Z,44.4
2018-11-22T11:21:04.066Z,44.41
2018-11-22T11:22:04.249Z,44.4
2018-11-22T11:23:04.850Z,44.45
2018-11-22T11:24:04.867Z,44.41
2018-11-22T11:25:03.997Z,44.41
2018-11-22T11:26:04.319Z,44.41
2018-11-22T11:27:04.232Z,44.35
2018-11-22T11:28:03.847Z,44.37
2018-11-22T11:29:04.474Z,44.39
2018-11-22T11:30:04.031Z,44.41
2018-11-22T11:31:04.539Z,44.4
2018-11-22T11:32:04.096Z,44.39
2018-11-22T11:33:04.337Z,44.4
2018-11-22T11:34:04.367Z,44.39
2018-11-22T11:35:04.196Z,44.42
2018-11-22T11:36:04.053Z,44.37
2018-11-22T11:37:04.558Z,44.41
2018-11-22T11:38:04.164Z,44.42
2018-11-22T11:39:04.808Z,44.39
2018-11-22T11:40:03.979Z,44.41
2018-11-22T11:41:04.491Z,44.42
2018-11-22T11:42:04.435Z,44.38
2018-11-22T11:43:03.946Z,44.41
2018-11-22T11:44:04.128Z,44.42
2018-11-22T11:45:04.220Z,44.33
2018-11-22T11:46:04.101Z,44.41
2018-11-22T11:47:03.985Z,44.39
2018-11-22T11:48:04.068Z,44.42
2018-11-22T11:49:04.181Z,44.36
2018-11-22T11:50:04.281Z,44.34
2018-11-22T11:51:04.285Z,44.4
2018-11-22T11:52:04.972Z,44.47
2018-11-22T11:53:04.420Z,44.35
2018-11-22T11:54:04.005Z,44.41
2018-11-22T11:55:04.352Z,44.4
2018-11-22T11:56:03.974Z,44.35
2018-11-22T11:57:04.223Z,44.44
2018-11-22T11:58:03.997Z,44.41
2018-11-22T11:59:03.894Z,44.39
2018-11-22T12:00:05.029Z,44.31
2018-11-22T12:01:03.892Z,44.42
2018-11-22T12:02:04.155Z,44.39
2018-11-22T12:03:04.034Z,44.39
2018-11-22T12:04:04.178Z,44.41
2018-11-22T12:05:04.118Z,44.43
2018-11-22T12:06:04.014Z,44.38
2018-11-22T12:07:04.051Z,44.39
2018-11-22T12:08:04.075Z,44.37
2018-11-22T12:09:04.345Z,44.43
2018-11-22T12:10:04.027Z,44.41
2018-11-22T12:11:04.633Z,44.44
2018-11-22T12:12:04.018Z,44.4
2018-11-22T12:13:04.004Z,44.37
2018-11-22T12:14:04.026Z,44.41
2018-11-22T12:15:04.171Z,44.39
2018-11-22T12:16:03.916Z,44.44
2018-11-22T12:17:04.015Z,44.41
2018-11-22T12:18:04.092Z,44.41
2018-11-22T12:19:04.003Z,44.41
2018-11-22T12:20:04.079Z,44.43
2018-11-22T12:21:03.973Z,44.34
2018-11-22T12:22:04.025Z,44.42
2018-11-22T12:23:03.883Z,44.42
2018-11-22T12:24:04.005Z,44.37
2018-11-22T12:25:04.223Z,44.35
2018-11-22T12:26:03.973Z,44.43
2018-11-22T12:27:04.064Z,44.42
2018-11-22T12:28:03.902Z,44.37
2018-11-22T12:29:04.068Z,44.42
2018-11-22T12:30:03.921Z,44.43
2018-11-22T12:31:06.926Z,44.44
2018-11-22T12:32:03.866Z,44.46
2018-11-22T12:33:03.974Z,44.45
2018-11-22T12:34:04.183Z,44.43
2018-11-22T12:35:04.012Z,44.46
2018-11-22T12:36:04.136Z,44.45
2018-11-22T12:37:03.861Z,44.44
2018-11-22T12:38:04.166Z,44.47
2018-11-22T12:39:04.239Z,44.35
2018-11-22T12:40:04.125Z,44.46
2018-11-22T12:41:03.940Z,44.46
2018-11-22T12:42:04.093Z,44.42
2018-11-22T12:43:04.266Z,44.45
2018-11-22T12:44:04.099Z,44.43
2018-11-22T12:45:04.208Z,44.29
2018-11-22T12:46:04.137Z,44.47
2018-11-22T12:47:04.300Z,44.49
2018-11-22T12:48:04.306Z,44.44
2018-11-22T12:49:04.317Z,44.44
2018-11-22T12:50:04.087Z,44.49
2018-11-22T12:51:04.201Z,44.44
2018-11-22T12:52:03.868Z,44.44
2018-11-22T12:53:03.821Z,44.46
2018-11-22T12:54:04.473Z,44.49
2018-11-22T12:55:03.959Z,44.46
2018-11-22T12:56:04.451Z,44.49